sensor_id;sensor_type;location;lat;lon;timestamp;P1;durP1;ratioP1;P2;durP2;ratioP2
35434;SDS011;21556;55.782;37.528;2023-03-11T00:01:31;6.63;;;4.83;;
35434;SDS011;21556;55.782;37.528;2023-03-11T00:03:57;8.67;;;5.80;;
35434;SDS011;21556;55.782;37.528;2023-03-11T00:06:24;7.23;;;4.23;;
35434;SDS011;21556;55.782;37.528;2023-03-11T00:08:50;6.23;;;4.87;;
35434;SDS011;21556;55.782;37.528;2023-03-11T00:11:16;7.03;;;5.10;;
35434;SDS011;21556;55.782;37.528;2023-03-11T00:13:44;5.43;;;3.70;;
35434;SDS011;21556;55.782;37.528;2023-03-11T00:16:09;7.53;;;4.83;;
35434;SDS011;21556;55.782;37.528;2023-03-11T00:18:35;8.07;;;4.73;;
35434;SDS011;21556;55.782;37.528;2023-03-11T00:21:01;7.60;;;5.73;;
35434;SDS011;21556;55.782;37.528;2023-03-11T00:23:27;6.73;;;4.80;;
35434;SDS011;21556;55.782;37.528;2023-03-11T00:25:54;7.40;;;4.43;;
35434;SDS011;21556;55.782;37.528;2023-03-11T00:28:20;6.00;;;4.60;;
35434;SDS011;21556;55.782;37.528;2023-03-11T00:30:49;7.50;;;4.93;;
35434;SDS011;21556;55.782;37.528;2023-03-11T00:33:15;8.03;;;4.37;;
35434;SDS011;21556;55.782;37.528;2023-03-11T00:35:41;7.23;;;4.17;;
35434;SDS011;21556;55.782;37.528;2023-03-11T00:38:09;7.67;;;4.33;;
35434;SDS011;21556;55.782;37.528;2023-03-11T00:40:39;10.70;;;4.73;;
35434;SDS011;21556;55.782;37.528;2023-03-11T00:43:07;7.47;;;4.57;;
35434;SDS011;21556;55.782;37.528;2023-03-11T00:45:34;4.97;;;3.80;;
35434;SDS011;21556;55.782;37.528;2023-03-11T00:48:00;6.00;;;4.27;;
35434;SDS011;21556;55.782;37.528;2023-03-11T00:50:28;7.17;;;4.60;;
35434;SDS011;21556;55.782;37.528;2023-03-11T00:52:56;6.13;;;4.10;;
35434;SDS011;21556;55.782;37.528;2023-03-11T00:55:27;6.70;;;3.93;;
35434;SDS011;21556;55.782;37.528;2023-03-11T00:57:59;6.67;;;4.03;;
35434;SDS011;21556;55.782;37.528;2023-03-11T01:00:33;5.33;;;3.70;;
35434;SDS011;21556;55.782;37.528;2023-03-11T01:03:01;7.45;;;4.97;;
35434;SDS011;21556;55.782;37.528;2023-03-11T01:05:28;6.53;;;3.80;;
35434;SDS011;21556;55.782;37.528;2023-03-11T01:07:56;8.23;;;4.23;;
35434;SDS011;21556;55.782;37.528;2023-03-11T01:10:22;8.10;;;3.97;;
35434;SDS011;21556;55.782;37.528;2023-03-11T01:12:50;4.63;;;3.83;;
35434;SDS011;21556;55.782;37.528;2023-03-11T01:15:21;6.47;;;3.83;;
35434;SDS011;21556;55.782;37.528;2023-03-11T01:17:48;9.97;;;4.83;;
35434;SDS011;21556;55.782;37.528;2023-03-11T01:20:14;5.53;;;3.70;;
35434;SDS011;21556;55.782;37.528;2023-03-11T01:22:41;12.03;;;4.73;;
35434;SDS011;21556;55.782;37.528;2023-03-11T01:25:08;7.47;;;4.43;;
35434;SDS011;21556;55.782;37.528;2023-03-11T01:27:37;7.67;;;4.17;;
35434;SDS011;21556;55.782;37.528;2023-03-11T01:30:03;6.93;;;3.93;;
35434;SDS011;21556;55.782;37.528;2023-03-11T01:32:30;10.47;;;4.27;;
35434;SDS011;21556;55.782;37.528;2023-03-11T01:34:55;8.30;;;4.20;;
35434;SDS011;21556;55.782;37.528;2023-03-11T01:37:21;7.37;;;4.37;;
35434;SDS011;21556;55.782;37.528;2023-03-11T01:39:47;5.20;;;3.97;;
35434;SDS011;21556;55.782;37.528;2023-03-11T01:42:13;7.37;;;4.73;;
35434;SDS011;21556;55.782;37.528;2023-03-11T01:44:39;5.97;;;4.80;;
35434;SDS011;21556;55.782;37.528;2023-03-11T01:49:34;8.10;;;5.07;;
35434;SDS011;21556;55.782;37.528;2023-03-11T01:52:06;8.43;;;4.33;;
35434;SDS011;21556;55.782;37.528;2023-03-11T01:54:37;6.93;;;3.73;;
35434;SDS011;21556;55.782;37.528;2023-03-11T01:57:05;6.83;;;4.47;;
35434;SDS011;21556;55.782;37.528;2023-03-11T01:59:38;6.73;;;4.47;;
35434;SDS011;21556;55.782;37.528;2023-03-11T02:02:29;6.17;;;4.43;;
35434;SDS011;21556;55.782;37.528;2023-03-11T02:05:00;8.07;;;5.17;;
35434;SDS011;21556;55.782;37.528;2023-03-11T02:07:29;7.77;;;5.40;;
35434;SDS011;21556;55.782;37.528;2023-03-11T02:09:54;8.23;;;5.50;;
35434;SDS011;21556;55.782;37.528;2023-03-11T02:12:21;6.80;;;5.20;;
35434;SDS011;21556;55.782;37.528;2023-03-11T02:14:48;7.93;;;5.10;;
35434;SDS011;21556;55.782;37.528;2023-03-11T02:17:16;7.67;;;5.00;;
35434;SDS011;21556;55.782;37.528;2023-03-11T02:19:50;10.00;;;5.67;;
35434;SDS011;21556;55.782;37.528;2023-03-11T02:22:26;11.63;;;6.00;;
35434;SDS011;21556;55.782;37.528;2023-03-11T02:27:40;9.63;;;5.97;;
35434;SDS011;21556;55.782;37.528;2023-03-11T02:30:10;10.97;;;6.00;;
35434;SDS011;21556;55.782;37.528;2023-03-11T02:32:38;12.30;;;5.30;;
35434;SDS011;21556;55.782;37.528;2023-03-11T02:35:06;7.95;;;5.88;;
35434;SDS011;21556;55.782;37.528;2023-03-11T02:37:32;10.43;;;6.53;;
35434;SDS011;21556;55.782;37.528;2023-03-11T02:40:22;8.00;;;5.57;;
35434;SDS011;21556;55.782;37.528;2023-03-11T02:42:53;9.93;;;6.00;;
35434;SDS011;21556;55.782;37.528;2023-03-11T02:45:23;9.40;;;5.23;;
35434;SDS011;21556;55.782;37.528;2023-03-11T02:47:54;9.03;;;6.13;;
35434;SDS011;21556;55.782;37.528;2023-03-11T02:50:22;10.93;;;5.90;;
35434;SDS011;21556;55.782;37.528;2023-03-11T02:52:49;11.60;;;6.97;;
35434;SDS011;21556;55.782;37.528;2023-03-11T02:55:16;8.30;;;5.73;;
35434;SDS011;21556;55.782;37.528;2023-03-11T02:57:45;10.98;;;7.35;;
35434;SDS011;21556;55.782;37.528;2023-03-11T03:00:12;12.00;;;6.47;;
35434;SDS011;21556;55.782;37.528;2023-03-11T03:02:46;10.03;;;6.87;;
35434;SDS011;21556;55.782;37.528;2023-03-11T03:05:17;12.60;;;7.83;;
35434;SDS011;21556;55.782;37.528;2023-03-11T03:07:46;18.67;;;8.03;;
35434;SDS011;21556;55.782;37.528;2023-03-11T03:10:13;13.03;;;8.13;;
35434;SDS011;21556;55.782;37.528;2023-03-11T03:12:39;14.25;;;8.32;;
35434;SDS011;21556;55.782;37.528;2023-03-11T03:15:05;14.87;;;8.77;;
35434;SDS011;21556;55.782;37.528;2023-03-11T03:17:32;14.57;;;8.07;;
35434;SDS011;21556;55.782;37.528;2023-03-11T03:19:58;15.53;;;9.27;;
35434;SDS011;21556;55.782;37.528;2023-03-11T03:22:24;17.33;;;8.63;;
35434;SDS011;21556;55.782;37.528;2023-03-11T03:27:18;15.53;;;8.50;;
35434;SDS011;21556;55.782;37.528;2023-03-11T03:29:44;15.63;;;9.40;;
35434;SDS011;21556;55.782;37.528;2023-03-11T03:32:11;14.07;;;8.70;;
35434;SDS011;21556;55.782;37.528;2023-03-11T03:34:36;13.00;;;8.43;;
35434;SDS011;21556;55.782;37.528;2023-03-11T03:37:02;14.67;;;8.80;;
35434;SDS011;21556;55.782;37.528;2023-03-11T03:39:28;12.43;;;7.80;;
35434;SDS011;21556;55.782;37.528;2023-03-11T03:41:54;18.43;;;10.03;;
35434;SDS011;21556;55.782;37.528;2023-03-11T03:44:22;16.13;;;9.95;;
35434;SDS011;21556;55.782;37.528;2023-03-11T03:46:48;17.17;;;11.17;;
35434;SDS011;21556;55.782;37.528;2023-03-11T03:49:14;18.23;;;11.80;;
35434;SDS011;21556;55.782;37.528;2023-03-11T03:51:40;20.80;;;11.80;;
35434;SDS011;21556;55.782;37.528;2023-03-11T03:54:11;19.20;;;12.47;;
35434;SDS011;21556;55.782;37.528;2023-03-11T03:56:37;19.93;;;12.13;;
35434;SDS011;21556;55.782;37.528;2023-03-11T03:59:03;17.13;;;11.07;;
35434;SDS011;21556;55.782;37.528;2023-03-11T04:01:36;15.60;;;10.17;;
35434;SDS011;21556;55.782;37.528;2023-03-11T04:04:02;15.87;;;8.90;;
35434;SDS011;21556;55.782;37.528;2023-03-11T04:06:28;14.40;;;9.70;;
35434;SDS011;21556;55.782;37.528;2023-03-11T04:08:59;20.03;;;10.37;;
35434;SDS011;21556;55.782;37.528;2023-03-11T04:11:28;13.73;;;10.33;;
35434;SDS011;21556;55.782;37.528;2023-03-11T04:13:56;18.38;;;11.82;;
35434;SDS011;21556;55.782;37.528;2023-03-11T04:16:23;18.00;;;12.43;;
35434;SDS011;21556;55.782;37.528;2023-03-11T04:18:52;17.80;;;11.57;;
35434;SDS011;21556;55.782;37.528;2023-03-11T04:21:19;19.70;;;11.97;;
35434;SDS011;21556;55.782;37.528;2023-03-11T04:23:46;18.30;;;12.30;;
35434;SDS011;21556;55.782;37.528;2023-03-11T04:26:14;20.67;;;13.10;;
35434;SDS011;21556;55.782;37.528;2023-03-11T04:28:40;21.73;;;12.83;;
35434;SDS011;21556;55.782;37.528;2023-03-11T04:31:06;23.07;;;14.07;;
35434;SDS011;21556;55.782;37.528;2023-03-11T04:33:33;21.23;;;13.57;;
35434;SDS011;21556;55.782;37.528;2023-03-11T04:35:59;20.77;;;13.20;;
35434;SDS011;21556;55.782;37.528;2023-03-11T04:38:29;22.57;;;14.87;;
35434;SDS011;21556;55.782;37.528;2023-03-11T04:40:58;24.43;;;15.97;;
35434;SDS011;21556;55.782;37.528;2023-03-11T04:43:28;23.67;;;14.53;;
35434;SDS011;21556;55.782;37.528;2023-03-11T04:45:55;21.40;;;14.67;;
35434;SDS011;21556;55.782;37.528;2023-03-11T04:48:21;23.23;;;16.23;;
35434;SDS011;21556;55.782;37.528;2023-03-11T04:50:47;21.47;;;13.57;;
35434;SDS011;21556;55.782;37.528;2023-03-11T04:53:13;20.60;;;13.97;;
35434;SDS011;21556;55.782;37.528;2023-03-11T04:55:40;18.20;;;12.37;;
35434;SDS011;21556;55.782;37.528;2023-03-11T04:58:06;18.53;;;13.40;;
35434;SDS011;21556;55.782;37.528;2023-03-11T05:00:34;18.60;;;11.35;;
35434;SDS011;21556;55.782;37.528;2023-03-11T05:03:07;21.43;;;14.47;;
35434;SDS011;21556;55.782;37.528;2023-03-11T05:05:33;18.33;;;13.93;;
35434;SDS011;21556;55.782;37.528;2023-03-11T05:08:00;19.00;;;13.43;;
35434;SDS011;21556;55.782;37.528;2023-03-11T05:10:28;16.30;;;11.65;;
35434;SDS011;21556;55.782;37.528;2023-03-11T05:12:57;19.33;;;12.37;;
35434;SDS011;21556;55.782;37.528;2023-03-11T05:15:28;19.77;;;12.57;;
35434;SDS011;21556;55.782;37.528;2023-03-11T05:17:57;16.93;;;11.17;;
35434;SDS011;21556;55.782;37.528;2023-03-11T05:20:27;17.43;;;11.43;;
35434;SDS011;21556;55.782;37.528;2023-03-11T05:22:53;14.70;;;10.87;;
35434;SDS011;21556;55.782;37.528;2023-03-11T05:25:20;13.13;;;9.97;;
35434;SDS011;21556;55.782;37.528;2023-03-11T05:27:45;14.80;;;8.67;;
35434;SDS011;21556;55.782;37.528;2023-03-11T05:30:13;17.27;;;7.93;;
35434;SDS011;21556;55.782;37.528;2023-03-11T05:33:02;12.87;;;10.20;;
35434;SDS011;21556;55.782;37.528;2023-03-11T05:35:28;13.00;;;10.00;;
35434;SDS011;21556;55.782;37.528;2023-03-11T05:37:55;14.13;;;9.63;;
35434;SDS011;21556;55.782;37.528;2023-03-11T05:40:25;16.23;;;10.60;;
35434;SDS011;21556;55.782;37.528;2023-03-11T05:42:51;15.63;;;9.87;;
35434;SDS011;21556;55.782;37.528;2023-03-11T05:45:17;16.10;;;9.80;;
35434;SDS011;21556;55.782;37.528;2023-03-11T05:47:45;15.75;;;10.20;;
35434;SDS011;21556;55.782;37.528;2023-03-11T05:50:13;21.70;;;8.35;;
35434;SDS011;21556;55.782;37.528;2023-03-11T05:52:41;14.55;;;10.02;;
35434;SDS011;21556;55.782;37.528;2023-03-11T05:55:09;17.67;;;9.70;;
35434;SDS011;21556;55.782;37.528;2023-03-11T05:57:43;14.43;;;10.67;;
35434;SDS011;21556;55.782;37.528;2023-03-11T06:00:39;14.57;;;11.13;;
35434;SDS011;21556;55.782;37.528;2023-03-11T06:03:07;17.00;;;11.03;;
35434;SDS011;21556;55.782;37.528;2023-03-11T06:05:37;17.00;;;11.38;;
35434;SDS011;21556;55.782;37.528;2023-03-11T06:08:22;16.67;;;12.30;;
35434;SDS011;21556;55.782;37.528;2023-03-11T06:10:48;18.50;;;12.43;;
35434;SDS011;21556;55.782;37.528;2023-03-11T06:13:16;21.73;;;12.85;;
35434;SDS011;21556;55.782;37.528;2023-03-11T06:15:49;15.90;;;10.53;;
35434;SDS011;21556;55.782;37.528;2023-03-11T06:18:20;15.07;;;11.43;;
35434;SDS011;21556;55.782;37.528;2023-03-11T06:20:47;16.63;;;12.17;;
35434;SDS011;21556;55.782;37.528;2023-03-11T06:26:37;14.60;;;10.17;;
35434;SDS011;21556;55.782;37.528;2023-03-11T06:29:15;15.07;;;10.27;;
35434;SDS011;21556;55.782;37.528;2023-03-11T06:31:47;12.80;;;9.00;;
35434;SDS011;21556;55.782;37.528;2023-03-11T06:34:16;21.50;;;10.87;;
35434;SDS011;21556;55.782;37.528;2023-03-11T06:36:42;14.63;;;11.03;;
35434;SDS011;21556;55.782;37.528;2023-03-11T06:39:12;14.97;;;10.23;;
35434;SDS011;21556;55.782;37.528;2023-03-11T06:41:59;14.77;;;10.20;;
35434;SDS011;21556;55.782;37.528;2023-03-11T06:44:27;12.10;;;8.67;;
35434;SDS011;21556;55.782;37.528;2023-03-11T06:46:53;16.13;;;9.60;;
35434;SDS011;21556;55.782;37.528;2023-03-11T06:49:19;11.33;;;8.67;;
35434;SDS011;21556;55.782;37.528;2023-03-11T06:51:45;13.33;;;8.73;;
35434;SDS011;21556;55.782;37.528;2023-03-11T06:54:13;9.48;;;6.72;;
35434;SDS011;21556;55.782;37.528;2023-03-11T06:56:39;12.70;;;8.00;;
35434;SDS011;21556;55.782;37.528;2023-03-11T06:59:07;6.57;;;4.63;;
35434;SDS011;21556;55.782;37.528;2023-03-11T07:01:33;13.50;;;6.87;;
35434;SDS011;21556;55.782;37.528;2023-03-11T07:04:02;9.13;;;6.73;;
35434;SDS011;21556;55.782;37.528;2023-03-11T07:06:33;9.93;;;6.17;;
35434;SDS011;21556;55.782;37.528;2023-03-11T07:09:04;13.83;;;8.17;;
35434;SDS011;21556;55.782;37.528;2023-03-11T07:11:43;11.70;;;7.23;;
35434;SDS011;21556;55.782;37.528;2023-03-11T07:14:13;8.67;;;5.77;;
35434;SDS011;21556;55.782;37.528;2023-03-11T07:16:43;8.77;;;5.83;;
35434;SDS011;21556;55.782;37.528;2023-03-11T07:19:22;10.57;;;6.83;;
35434;SDS011;21556;55.782;37.528;2023-03-11T07:21:48;11.97;;;6.80;;
35434;SDS011;21556;55.782;37.528;2023-03-11T07:24:14;11.53;;;6.37;;
35434;SDS011;21556;55.782;37.528;2023-03-11T07:26:40;11.13;;;6.97;;
35434;SDS011;21556;55.782;37.528;2023-03-11T07:29:07;10.37;;;5.77;;
35434;SDS011;21556;55.782;37.528;2023-03-11T07:31:36;12.48;;;6.82;;
35434;SDS011;21556;55.782;37.528;2023-03-11T07:34:03;9.57;;;7.45;;
35434;SDS011;21556;55.782;37.528;2023-03-11T07:36:35;9.97;;;6.97;;
35434;SDS011;21556;55.782;37.528;2023-03-11T07:39:02;13.67;;;7.00;;
35434;SDS011;21556;55.782;37.528;2023-03-11T07:41:38;10.60;;;7.60;;
35434;SDS011;21556;55.782;37.528;2023-03-11T07:44:04;10.10;;;6.73;;
35434;SDS011;21556;55.782;37.528;2023-03-11T07:46:31;8.17;;;6.03;;
35434;SDS011;21556;55.782;37.528;2023-03-11T07:48:57;9.60;;;6.70;;
35434;SDS011;21556;55.782;37.528;2023-03-11T07:51:26;9.37;;;5.43;;
35434;SDS011;21556;55.782;37.528;2023-03-11T07:53:57;11.40;;;6.90;;
35434;SDS011;21556;55.782;37.528;2023-03-11T07:56:26;10.10;;;6.60;;
35434;SDS011;21556;55.782;37.528;2023-03-11T07:58:56;10.07;;;6.00;;
35434;SDS011;21556;55.782;37.528;2023-03-11T08:01:24;6.18;;;4.82;;
35434;SDS011;21556;55.782;37.528;2023-03-11T08:03:52;7.25;;;4.85;;
35434;SDS011;21556;55.782;37.528;2023-03-11T08:06:27;9.30;;;6.60;;
35434;SDS011;21556;55.782;37.528;2023-03-11T08:09:14;7.63;;;4.73;;
35434;SDS011;21556;55.782;37.528;2023-03-11T08:11:40;11.30;;;6.57;;
35434;SDS011;21556;55.782;37.528;2023-03-11T08:14:06;11.80;;;7.80;;
35434;SDS011;21556;55.782;37.528;2023-03-11T08:16:33;9.13;;;6.70;;
35434;SDS011;21556;55.782;37.528;2023-03-11T08:18:59;8.67;;;5.23;;
35434;SDS011;21556;55.782;37.528;2023-03-11T08:21:28;10.53;;;6.50;;
35434;SDS011;21556;55.782;37.528;2023-03-11T08:23:57;5.90;;;3.83;;
35434;SDS011;21556;55.782;37.528;2023-03-11T08:26:24;9.00;;;5.77;;
35434;SDS011;21556;55.782;37.528;2023-03-11T08:28:51;10.43;;;6.53;;
35434;SDS011;21556;55.782;37.528;2023-03-11T08:31:18;8.87;;;6.20;;
35434;SDS011;21556;55.782;37.528;2023-03-11T08:33:47;10.33;;;6.80;;
35434;SDS011;21556;55.782;37.528;2023-03-11T08:36:15;13.80;;;7.10;;
35434;SDS011;21556;55.782;37.528;2023-03-11T08:38:41;12.17;;;6.73;;
35434;SDS011;21556;55.782;37.528;2023-03-11T08:41:07;9.03;;;5.83;;
35434;SDS011;21556;55.782;37.528;2023-03-11T08:43:33;9.03;;;5.50;;
35434;SDS011;21556;55.782;37.528;2023-03-11T08:46:00;8.87;;;5.80;;
35434;SDS011;21556;55.782;37.528;2023-03-11T08:48:36;7.90;;;5.23;;
35434;SDS011;21556;55.782;37.528;2023-03-11T08:51:07;8.90;;;6.10;;
35434;SDS011;21556;55.782;37.528;2023-03-11T08:53:37;8.23;;;5.90;;
35434;SDS011;21556;55.782;37.528;2023-03-11T08:56:03;7.37;;;5.20;;
35434;SDS011;21556;55.782;37.528;2023-03-11T08:58:30;7.83;;;5.47;;
35434;SDS011;21556;55.782;37.528;2023-03-11T09:00:56;8.57;;;5.90;;
35434;SDS011;21556;55.782;37.528;2023-03-11T09:03:23;8.83;;;6.30;;
35434;SDS011;21556;55.782;37.528;2023-03-11T09:05:55;6.95;;;4.50;;
35434;SDS011;21556;55.782;37.528;2023-03-11T09:08:25;8.10;;;5.90;;
35434;SDS011;21556;55.782;37.528;2023-03-11T09:10:59;7.83;;;6.17;;
35434;SDS011;21556;55.782;37.528;2023-03-11T09:13:26;5.17;;;4.07;;
35434;SDS011;21556;55.782;37.528;2023-03-11T09:16:00;8.13;;;5.77;;
35434;SDS011;21556;55.782;37.528;2023-03-11T09:18:57;8.83;;;5.77;;
35434;SDS011;21556;55.782;37.528;2023-03-11T09:21:36;5.47;;;4.07;;
35434;SDS011;21556;55.782;37.528;2023-03-11T09:24:03;13.50;;;6.50;;
35434;SDS011;21556;55.782;37.528;2023-03-11T09:26:30;15.68;;;5.97;;
35434;SDS011;21556;55.782;37.528;2023-03-11T09:28:59;8.97;;;6.23;;
35434;SDS011;21556;55.782;37.528;2023-03-11T09:33:53;8.83;;;5.73;;
35434;SDS011;21556;55.782;37.528;2023-03-11T09:36:21;10.03;;;5.07;;
35434;SDS011;21556;55.782;37.528;2023-03-11T09:38:47;12.40;;;4.93;;
35434;SDS011;21556;55.782;37.528;2023-03-11T09:43:45;8.83;;;5.03;;
35434;SDS011;21556;55.782;37.528;2023-03-11T09:51:41;9.10;;;5.40;;
35434;SDS011;21556;55.782;37.528;2023-03-11T09:54:18;9.23;;;5.70;;
35434;SDS011;21556;55.782;37.528;2023-03-11T09:56:44;8.53;;;5.80;;
35434;SDS011;21556;55.782;37.528;2023-03-11T10:01:48;8.43;;;6.47;;
35434;SDS011;21556;55.782;37.528;2023-03-11T10:06:44;10.13;;;6.20;;
35434;SDS011;21556;55.782;37.528;2023-03-11T10:15:05;10.13;;;7.27;;
35434;SDS011;21556;55.782;37.528;2023-03-11T10:23:25;8.95;;;6.10;;
35434;SDS011;21556;55.782;37.528;2023-03-11T10:25:55;9.80;;;5.45;;
35434;SDS011;21556;55.782;37.528;2023-03-11T10:28:41;9.13;;;5.17;;
35434;SDS011;21556;55.782;37.528;2023-03-11T10:31:30;9.47;;;6.67;;
35434;SDS011;21556;55.782;37.528;2023-03-11T10:36:51;9.60;;;6.68;;
35434;SDS011;21556;55.782;37.528;2023-03-11T10:39:23;10.15;;;7.03;;
35434;SDS011;21556;55.782;37.528;2023-03-11T10:44:39;10.87;;;6.57;;
35434;SDS011;21556;55.782;37.528;2023-03-11T10:47:11;8.85;;;6.38;;
35434;SDS011;21556;55.782;37.528;2023-03-11T10:49:41;9.23;;;6.90;;
35434;SDS011;21556;55.782;37.528;2023-03-11T10:52:07;7.67;;;6.53;;
35434;SDS011;21556;55.782;37.528;2023-03-11T10:54:34;8.47;;;6.63;;
35434;SDS011;21556;55.782;37.528;2023-03-11T10:59:56;10.70;;;7.03;;
35434;SDS011;21556;55.782;37.528;2023-03-11T11:02:30;9.60;;;7.00;;
35434;SDS011;21556;55.782;37.528;2023-03-11T11:07:44;8.57;;;6.33;;
35434;SDS011;21556;55.782;37.528;2023-03-11T11:15:21;11.80;;;7.93;;
35434;SDS011;21556;55.782;37.528;2023-03-11T11:17:53;7.85;;;6.55;;
35434;SDS011;21556;55.782;37.528;2023-03-11T11:20:22;10.00;;;7.73;;
35434;SDS011;21556;55.782;37.528;2023-03-11T11:22:54;8.68;;;6.25;;
35434;SDS011;21556;55.782;37.528;2023-03-11T11:25:29;7.33;;;5.37;;
35434;SDS011;21556;55.782;37.528;2023-03-11T11:27:59;10.83;;;7.70;;
35434;SDS011;21556;55.782;37.528;2023-03-11T11:30:27;8.20;;;5.97;;
35434;SDS011;21556;55.782;37.528;2023-03-11T11:32:53;12.90;;;8.90;;
35434;SDS011;21556;55.782;37.528;2023-03-11T11:35:21;10.37;;;8.10;;
35434;SDS011;21556;55.782;37.528;2023-03-11T11:37:53;11.33;;;8.13;;
35434;SDS011;21556;55.782;37.528;2023-03-11T11:43:00;6.37;;;5.13;;
35434;SDS011;21556;55.782;37.528;2023-03-11T11:45:34;10.10;;;8.00;;
35434;SDS011;21556;55.782;37.528;2023-03-11T11:50:51;12.37;;;8.07;;
35434;SDS011;21556;55.782;37.528;2023-03-11T11:53:29;9.87;;;8.07;;
35434;SDS011;21556;55.782;37.528;2023-03-11T11:56:02;8.03;;;6.13;;
35434;SDS011;21556;55.782;37.528;2023-03-11T11:58:31;11.00;;;7.93;;
35434;SDS011;21556;55.782;37.528;2023-03-11T12:12:01;9.70;;;6.73;;
35434;SDS011;21556;55.782;37.528;2023-03-11T12:17:17;9.60;;;6.70;;
35434;SDS011;21556;55.782;37.528;2023-03-11T12:20:07;10.93;;;8.93;;
35434;SDS011;21556;55.782;37.528;2023-03-11T12:30:49;11.13;;;7.30;;
35434;SDS011;21556;55.782;37.528;2023-03-11T12:33:24;9.97;;;6.80;;
35434;SDS011;21556;55.782;37.528;2023-03-11T12:38:30;12.37;;;8.63;;
35434;SDS011;21556;55.782;37.528;2023-03-11T12:41:00;16.87;;;9.00;;
35434;SDS011;21556;55.782;37.528;2023-03-11T12:46:13;9.60;;;7.07;;
35434;SDS011;21556;55.782;37.528;2023-03-11T12:49:04;12.90;;;9.33;;
35434;SDS011;21556;55.782;37.528;2023-03-11T12:57:04;11.73;;;8.40;;
35434;SDS011;21556;55.782;37.528;2023-03-11T13:05:36;13.47;;;6.83;;
35434;SDS011;21556;55.782;37.528;2023-03-11T13:10:53;14.23;;;8.53;;
35434;SDS011;21556;55.782;37.528;2023-03-11T13:13:21;11.25;;;8.00;;
35434;SDS011;21556;55.782;37.528;2023-03-11T13:16:34;11.30;;;8.13;;
35434;SDS011;21556;55.782;37.528;2023-03-11T13:18:47;11.32;;;8.65;;
35434;SDS011;21556;55.782;37.528;2023-03-11T13:23:52;10.27;;;7.60;;
35434;SDS011;21556;55.782;37.528;2023-03-11T13:41:25;9.40;;;7.00;;
35434;SDS011;21556;55.782;37.528;2023-03-11T13:44:21;12.27;;;8.00;;
35434;SDS011;21556;55.782;37.528;2023-03-11T13:52:32;12.23;;;7.90;;
35434;SDS011;21556;55.782;37.528;2023-03-11T13:57:32;10.70;;;6.90;;
35434;SDS011;21556;55.782;37.528;2023-03-11T14:00:06;9.98;;;6.47;;
35434;SDS011;21556;55.782;37.528;2023-03-11T14:02:44;10.83;;;8.07;;
35434;SDS011;21556;55.782;37.528;2023-03-11T14:05:14;11.60;;;7.87;;
35434;SDS011;21556;55.782;37.528;2023-03-11T14:07:45;10.80;;;6.83;;
35434;SDS011;21556;55.782;37.528;2023-03-11T14:12:43;12.03;;;8.20;;
35434;SDS011;21556;55.782;37.528;2023-03-11T14:15:22;12.90;;;8.13;;
35434;SDS011;21556;55.782;37.528;2023-03-11T14:17:51;12.17;;;7.53;;
35434;SDS011;21556;55.782;37.528;2023-03-11T14:20:37;12.87;;;7.97;;
35434;SDS011;21556;55.782;37.528;2023-03-11T14:23:03;13.90;;;8.07;;
35434;SDS011;21556;55.782;37.528;2023-03-11T14:25:29;11.90;;;7.90;;
35434;SDS011;21556;55.782;37.528;2023-03-11T14:28:01;16.13;;;8.63;;
35434;SDS011;21556;55.782;37.528;2023-03-11T14:30:30;8.93;;;5.85;;
35434;SDS011;21556;55.782;37.528;2023-03-11T14:32:58;11.60;;;7.70;;
35434;SDS011;21556;55.782;37.528;2023-03-11T14:35:27;12.27;;;8.57;;
35434;SDS011;21556;55.782;37.528;2023-03-11T14:37:53;14.07;;;8.63;;
35434;SDS011;21556;55.782;37.528;2023-03-11T14:40:24;11.37;;;7.53;;
35434;SDS011;21556;55.782;37.528;2023-03-11T14:42:59;16.40;;;8.20;;
35434;SDS011;21556;55.782;37.528;2023-03-11T14:45:31;12.17;;;7.03;;
35434;SDS011;21556;55.782;37.528;2023-03-11T14:50:27;18.00;;;10.33;;
35434;SDS011;21556;55.782;37.528;2023-03-11T14:55:38;13.80;;;9.17;;
35434;SDS011;21556;55.782;37.528;2023-03-11T14:58:20;13.10;;;9.57;;
35434;SDS011;21556;55.782;37.528;2023-03-11T15:03:28;15.93;;;8.90;;
35434;SDS011;21556;55.782;37.528;2023-03-11T15:08:54;16.87;;;9.50;;
35434;SDS011;21556;55.782;37.528;2023-03-11T15:11:22;14.17;;;6.70;;
35434;SDS011;21556;55.782;37.528;2023-03-11T15:13:50;13.23;;;8.45;;
35434;SDS011;21556;55.782;37.528;2023-03-11T15:16:31;19.35;;;8.65;;
35434;SDS011;21556;55.782;37.528;2023-03-11T15:18:59;15.93;;;7.33;;
35434;SDS011;21556;55.782;37.528;2023-03-11T15:21:26;12.13;;;8.30;;
35434;SDS011;21556;55.782;37.528;2023-03-11T15:26:24;9.77;;;7.17;;
35434;SDS011;21556;55.782;37.528;2023-03-11T15:29:00;7.90;;;5.20;;
35434;SDS011;21556;55.782;37.528;2023-03-11T15:31:30;12.70;;;7.87;;
35434;SDS011;21556;55.782;37.528;2023-03-11T15:34:07;10.00;;;7.80;;
35434;SDS011;21556;55.782;37.528;2023-03-11T15:36:38;10.13;;;7.27;;
35434;SDS011;21556;55.782;37.528;2023-03-11T15:41:58;10.77;;;7.73;;
35434;SDS011;21556;55.782;37.528;2023-03-11T15:46:54;12.75;;;8.10;;
35434;SDS011;21556;55.782;37.528;2023-03-11T15:49:22;10.53;;;7.57;;
35434;SDS011;21556;55.782;37.528;2023-03-11T15:51:48;11.83;;;7.67;;
35434;SDS011;21556;55.782;37.528;2023-03-11T15:54:14;11.17;;;7.83;;
35434;SDS011;21556;55.782;37.528;2023-03-11T15:56:40;12.87;;;8.30;;
35434;SDS011;21556;55.782;37.528;2023-03-11T15:59:10;8.50;;;5.67;;
35434;SDS011;21556;55.782;37.528;2023-03-11T16:01:40;13.40;;;8.90;;
35434;SDS011;21556;55.782;37.528;2023-03-11T16:04:13;16.00;;;8.57;;
35434;SDS011;21556;55.782;37.528;2023-03-11T16:06:41;13.90;;;8.67;;
35434;SDS011;21556;55.782;37.528;2023-03-11T16:09:13;13.27;;;7.13;;
35434;SDS011;21556;55.782;37.528;2023-03-11T16:11:42;9.87;;;7.20;;
35434;SDS011;21556;55.782;37.528;2023-03-11T16:14:14;15.90;;;8.60;;
35434;SDS011;21556;55.782;37.528;2023-03-11T16:17:16;12.37;;;7.50;;
35434;SDS011;21556;55.782;37.528;2023-03-11T16:19:54;13.43;;;8.83;;
35434;SDS011;21556;55.782;37.528;2023-03-11T16:22:31;11.85;;;7.82;;
35434;SDS011;21556;55.782;37.528;2023-03-11T16:25:08;11.80;;;8.93;;
35434;SDS011;21556;55.782;37.528;2023-03-11T16:27:42;14.23;;;9.43;;
35434;SDS011;21556;55.782;37.528;2023-03-11T16:30:09;14.47;;;9.03;;
35434;SDS011;21556;55.782;37.528;2023-03-11T16:32:41;15.40;;;8.63;;
35434;SDS011;21556;55.782;37.528;2023-03-11T16:35:08;12.27;;;7.53;;
35434;SDS011;21556;55.782;37.528;2023-03-11T16:37:34;12.87;;;9.37;;
35434;SDS011;21556;55.782;37.528;2023-03-11T16:40:00;15.30;;;9.27;;
35434;SDS011;21556;55.782;37.528;2023-03-11T16:42:26;15.00;;;8.27;;
35434;SDS011;21556;55.782;37.528;2023-03-11T16:44:51;19.33;;;9.10;;
35434;SDS011;21556;55.782;37.528;2023-03-11T16:47:20;13.97;;;8.97;;
35434;SDS011;21556;55.782;37.528;2023-03-11T16:49:46;11.30;;;8.60;;
35434;SDS011;21556;55.782;37.528;2023-03-11T16:52:15;12.83;;;8.57;;
35434;SDS011;21556;55.782;37.528;2023-03-11T16:54:44;13.63;;;8.17;;
35434;SDS011;21556;55.782;37.528;2023-03-11T16:57:10;14.67;;;8.93;;
35434;SDS011;21556;55.782;37.528;2023-03-11T16:59:36;13.23;;;8.10;;
35434;SDS011;21556;55.782;37.528;2023-03-11T17:02:01;13.57;;;8.00;;
35434;SDS011;21556;55.782;37.528;2023-03-11T17:04:27;16.03;;;8.37;;
35434;SDS011;21556;55.782;37.528;2023-03-11T17:06:53;16.60;;;9.87;;